Time;durP1;ratioP1;P1;durP2;ratioP2;P2;SDS_P1;SDS_P2;PMS_P1;PMS_P2;Temp;Humidity;BMP_temperature;BMP_pressure;BME280_temperature;BME280_humidity;BME280_pressure;Samples;Min_cycle;Max_cycle;Signal;HPM_P1;HPM_P2
2022/09/20 00:01:27;;;;;;;13.32;5.15;;;12.60;99.90;;;;;;5053665;28;20033;-70
2022/09/20 00:03:56;;;;;;;13.95;4.68;;;12.60;99.90;;;;;;5068535;28;20048;-70
2022/09/20 00:06:27;;;;;;;13.32;4.00;;;12.70;99.90;;;;;;5060630;28;20392;-70
2022/09/20 00:08:54;;;;;;;11.18;4.43;;;12.70;99.90;;;;;;5057842;28;20025;-69
2022/09/20 00:11:25;;;;;;;6.32;2.53;;;12.70;99.90;;;;;;5052707;28;20072;-69
2022/09/20 00:13:53;;;;;;;12.07;3.00;;;12.80;99.90;;;;;;5053553;28;20033;-70
2022/09/20 00:16:39;;;;;;;12.70;2.95;;;12.80;99.90;;;;;;5053888;28;20067;-69
2022/09/20 00:19:05;;;;;;;13.68;3.60;;;12.70;99.90;;;;;;5053885;28;20139;-70
2022/09/20 00:21:32;;;;;;;15.40;4.53;;;12.70;99.90;;;;;;5053775;28;20524;-69
2022/09/20 00:24:00;;;;;;;10.82;3.65;;;12.70;99.90;;;;;;5053387;28;20045;-69
2022/09/20 00:26:27;;;;;;;11.93;3.00;;;12.70;99.90;;;;;;5054007;28;20041;-69
2022/09/20 00:28:53;;;;;;;9.38;3.58;;;12.70;99.90;;;;;;5053781;28;20479;-69
2022/09/20 00:31:18;;;;;;;10.73;3.53;;;12.60;99.90;;;;;;5053753;28;20378;-70
2022/09/20 00:36:30;;;;;;;14.95;3.33;;;12.60;99.90;;;;;;5052773;28;20040;-69
2022/09/20 00:39:00;;;;;;;10.02;2.40;;;12.60;99.90;;;;;;5053359;28;20401;-70
2022/09/20 00:41:26;;;;;;;15.23;3.40;;;12.60;99.90;;;;;;5053667;28;20466;-69
2022/09/20 00:43:53;;;;;;;15.13;4.82;;;12.60;99.90;;;;;;5053927;28;20068;-70
2022/09/20 00:46:32;;;;;;;11.90;3.03;;;12.70;99.90;;;;;;5053178;28;20386;-70
2022/09/20 00:49:04;;;;;;;13.00;2.90;;;12.60;99.90;;;;;;5053743;28;20052;-69
2022/09/20 00:51:36;;;;;;;9.98;2.35;;;12.50;99.90;;;;;;5053667;28;20078;-70
2022/09/20 00:54:06;;;;;;;8.75;2.72;;;12.50;99.90;;;;;;5053521;28;20096;-71
2022/09/20 00:56:39;;;;;;;12.30;4.60;;;12.50;99.90;;;;;;5033541;28;20120;-71
2022/09/20 00:59:31;;;;;;;11.57;3.35;;;12.50;99.90;;;;;;5049653;28;20124;-71
2022/09/20 01:02:14;;;;;;;9.02;3.15;;;12.60;99.90;;;;;;5048077;28;20120;-70
2022/09/20 01:04:41;;;;;;;13.38;2.75;;;12.60;99.90;;;;;;5051275;28;20486;-71
2022/09/20 01:07:09;;;;;;;12.73;3.30;;;12.60;99.90;;;;;;5052562;28;20419;-70
2022/09/20 01:09:35;;;;;;;8.70;2.42;;;12.60;99.90;;;;;;5052863;28;20099;-71
2022/09/20 01:12:08;;;;;;;11.85;2.97;;;12.60;99.90;;;;;;5053166;28;20029;-70
2022/09/20 01:14:34;;;;;;;9.95;2.72;;;12.60;99.90;;;;;;5053514;28;20074;-70
2022/09/20 01:17:03;;;;;;;6.70;2.47;;;12.60;99.90;;;;;;5053200;28;20100;-70
2022/09/20 01:19:52;;;;;;;8.02;2.78;;;12.70;99.90;;;;;;5052777;28;20033;-71
2022/09/20 01:22:24;;;;;;;6.03;2.17;;;12.70;99.90;;;;;;5052956;28;20065;-70
2022/09/20 01:25:13;;;;;;;10.45;2.38;;;12.70;99.90;;;;;;5034789;28;20033;-70
2022/09/20 01:27:47;;;;;;;9.57;2.35;;;12.80;99.90;;;;;;5036804;28;20036;-70
2022/09/20 01:30:20;;;;;;;9.73;2.50;;;12.80;99.90;;;;;;5052728;28;20133;-70
2022/09/20 01:32:55;;;;;;;8.68;2.17;;;12.70;99.90;;;;;;5051314;28;20037;-70
2022/09/20 01:35:25;;;;;;;8.85;2.58;;;12.80;99.90;;;;;;5052806;28;20060;-70
2022/09/20 01:38:14;;;;;;;10.00;2.47;;;12.80;99.90;;;;;;5052522;28;20437;-70
2022/09/20 01:41:07;;;;;;;12.20;2.92;;;12.80;99.90;;;;;;5052667;28;20428;-70
2022/09/20 01:43:45;;;;;;;8.15;2.50;;;12.80;99.90;;;;;;5052689;28;20033;-70
2022/09/20 01:46:30;;;;;;;11.70;2.45;;;12.80;99.90;;;;;;5052601;28;20431;-70
2022/09/20 01:49:10;;;;;;;6.60;2.20;;;12.80;99.90;;;;;;5050863;28;20486;-70
2022/09/20 01:52:10;;;;;;;8.27;2.67;;;12.80;99.90;;;;;;5052344;28;20102;-71
2022/09/20 01:54:48;;;;;;;14.40;3.22;;;12.70;99.90;;;;;;5052239;28;20037;-70
2022/09/20 01:57:32;;;;;;;7.57;2.47;;;12.60;99.90;;;;;;5052339;28;20029;-70
2022/09/20 02:00:00;;;;;;;11.90;2.63;;;12.50;99.90;;;;;;5052195;28;20076;-70
2022/09/20 02:02:44;;;;;;;6.90;2.47;;;12.50;99.90;;;;;;5051954;28;20025;-68
2022/09/20 02:05:15;;;;;;;5.57;2.92;;;12.50;99.90;;;;;;5052140;28;20040;-69
2022/09/20 02:08:03;;;;;;;6.85;2.20;;;12.40;99.90;;;;;;5051597;28;20040;-69
2022/09/20 02:10:40;;;;;;;12.45;2.63;;;12.30;99.90;;;;;;5051333;28;20045;-68
2022/09/20 02:13:10;;;;;;;7.30;2.53;;;12.30;99.90;;;;;;5048833;28;20033;-69
2022/09/20 02:15:57;;;;;;;11.68;2.80;;;12.40;99.90;;;;;;5052148;28;20029;-69
2022/09/20 02:18:50;;;;;;;9.82;2.80;;;12.40;99.90;;;;;;5051657;28;20102;-69
2022/09/20 02:21:43;;;;;;;10.18;2.67;;;12.50;99.90;;;;;;5041255;28;20059;-69
2022/09/20 02:24:38;;;;;;;9.23;2.42;;;12.50;99.90;;;;;;5051024;28;20097;-69
2022/09/20 02:27:40;;;;;;;10.25;2.58;;;12.50;99.90;;;;;;5038382;28;20040;-68
2022/09/20 02:30:29;;;;;;;6.93;2.08;;;12.50;99.90;;;;;;5051385;28;20537;-69
2022/09/20 02:33:05;;;;;;;10.10;2.75;;;12.60;99.90;;;;;;5050176;28;20039;-69
2022/09/20 02:35:54;;;;;;;7.03;2.42;;;12.70;99.90;;;;;;5051543;28;20461;-68
2022/09/20 02:38:44;;;;;;;10.23;2.50;;;12.70;99.90;;;;;;5049492;28;20111;-68
2022/09/20 02:41:09;;;;;;;11.07;2.35;;;12.70;99.90;;;;;;5051971;28;20033;-68
2022/09/20 02:43:50;;;;;;;6.13;2.28;;;12.70;99.90;;;;;;5051339;28;20033;-69
2022/09/20 02:46:29;;;;;;;14.13;2.53;;;12.70;99.90;;;;;;5052086;28;20033;-68
2022/09/20 02:49:00;;;;;;;6.80;2.60;;;12.70;99.90;;;;;;5051445;28;20036;-69
2022/09/20 02:52:07;;;;;;;10.45;3.38;;;12.80;99.90;;;;;;5051462;28;20056;-70
2022/09/20 02:54:52;;;;;;;6.47;2.50;;;12.80;99.90;;;;;;5028679;28;20069;-68
2022/09/20 02:57:21;;;;;;;8.27;2.50;;;12.80;99.90;;;;;;5039718;28;20085;-69
2022/09/20 02:59:56;;;;;;;11.35;2.45;;;12.80;99.90;;;;;;5053246;28;20047;-69
2022/09/20 03:02:30;;;;;;;6.22;2.78;;;12.80;99.90;;;;;;5055402;28;20040;-69
2022/09/20 03:05:11;;;;;;;8.38;2.20;;;12.90;99.90;;;;;;5055344;28;20102;-69
2022/09/20 03:08:08;;;;;;;9.35;2.25;;;12.90;99.90;;;;;;5055554;28;20493;-69
2022/09/20 03:10:46;;;;;;;8.98;2.20;;;12.90;99.90;;;;;;5054678;28;20060;-69
2022/09/20 03:13:49;;;;;;;9.07;2.22;;;12.90;99.90;;;;;;5055604;28;20064;-68
2022/09/20 03:16:17;;;;;;;;;;;12.80;99.90;;;;;;5055811;28;20099;-69
2022/09/20 03:19:01;;;;;;;8.32;1.90;;;12.80;99.90;;;;;;5055168;28;19912;-70
2022/09/20 03:21:27;;;;;;;5.30;2.20;;;12.80;99.90;;;;;;5055135;28;20120;-70
2022/09/20 03:24:30;;;;;;;6.07;2.10;;;12.80;99.90;;;;;;5054968;28;20419;-69
2022/09/20 03:27:06;;;;;;;7.78;2.50;;;12.80;99.90;;;;;;5035339;28;20061;-69
2022/09/20 03:29:58;;;;;;;13.57;2.35;;;12.80;99.90;;;;;;5053188;28;20243;-70
2022/09/20 03:32:51;;;;;;;7.43;2.00;;;12.80;99.90;;;;;;5055254;28;20465;-69
2022/09/20 03:35:42;;;;;;;8.32;1.95;;;12.80;99.90;;;;;;5054966;28;20269;-69
2022/09/20 03:38:33;;;;;;;7.25;1.60;;;12.70;99.90;;;;;;5040013;28;20043;-69
2022/09/20 03:41:30;;;;;;;5.70;2.10;;;12.60;99.90;;;;;;5054782;28;20028;-69
2022/09/20 03:43:55;;;;;;;11.82;2.95;;;12.50;99.90;;;;;;5038598;28;20033;-69
2022/09/20 03:46:43;;;;;;;8.32;1.88;;;12.50;99.90;;;;;;5054929;28;20079;-69
2022/09/20 03:49:30;;;;;;;6.55;1.80;;;12.40;99.90;;;;;;5054064;28;20041;-69
2022/09/20 03:52:20;;;;;;;5.22;1.52;;;12.30;99.90;;;;;;5038235;28;20021;-70
2022/09/20 03:54:52;;;;;;;7.78;1.73;;;12.30;99.90;;;;;;5054692;28;20051;-69
2022/09/20 03:57:33;;;;;;;6.57;1.83;;;12.30;99.90;;;;;;5053317;28;20029;-70
2022/09/20 04:00:32;;;;;;;7.65;1.90;;;12.30;99.90;;;;;;5052270;28;20035;-68
2022/09/20 04:03:22;;;;;;;6.57;1.60;;;12.20;99.90;;;;;;5054615;28;20081;-68
2022/09/20 04:06:35;;;;;;;6.18;1.58;;;12.20;99.90;;;;;;5054499;28;20056;-69
2022/09/20 04:09:32;;;;;;;11.48;2.80;;;12.20;99.90;;;;;;5019680;28;20061;-69
2022/09/20 04:12:21;;;;;;;6.15;1.73;;;12.20;99.90;;;;;;5015803;28;20566;-69
2022/09/20 04:14:53;;;;;;;12.82;2.15;;;12.10;99.90;;;;;;5020966;28;20044;-69
2022/09/20 04:17:19;;;;;;;;;;;12.10;99.90;;;;;;5027367;28;20033;-69
2022/09/20 04:19:51;;;;;;;6.93;1.67;;;12.10;99.90;;;;;;5015535;28;20011;-70
2022/09/20 04:22:20;;;;;;;11.68;1.98;;;12.00;99.90;;;;;;5025627;28;20472;-69
2022/09/20 04:25:13;;;;;;;10.02;1.73;;;12.00;99.90;;;;;;5031550;28;20510;-70
2022/09/20 04:27:44;;;;;;;;;;;12.00;99.90;;;;;;5032088;28;20091;-70
2022/09/20 04:30:23;;;;;;;5.38;1.67;;;12.00;99.90;;;;;;5031866;28;19905;-70
2022/09/20 04:33:04;;;;;;;6.97;1.77;;;12.00;99.90;;;;;;5031825;28;20095;-69
2022/09/20 04:38:39;;;;;;;6.47;1.70;;;12.00;99.90;;;;;;5021478;28;20071;-70
2022/09/20 04:41:27;;;;;;;8.40;1.70;;;12.00;99.90;;;;;;5052105;28;20175;-70
2022/09/20 04:44:10;;;;;;;7.43;1.50;;;12.00;99.90;;;;;;5053413;28;20040;-70
2022/09/20 04:46:54;;;;;;;3.42;1.30;;;12.10;99.90;;;;;;5053804;28;20037;-70
2022/09/20 04:49:45;;;;;;;4.22;1.23;;;12.10;99.90;;;;;;5053506;28;20025;-69
2022/09/20 04:52:13;;;;;;;7.10;1.90;;;12.10;99.90;;;;;;5053305;28;20025;-68
2022/09/20 04:55:20;;;;;;;6.53;1.35;;;12.10;99.90;;;;;;5053644;28;20103;-69
2022/09/20 04:58:04;;;;;;;7.63;1.55;;;12.00;99.90;;;;;;5051893;28;20104;-70
2022/09/20 05:00:59;;;;;;;7.32;1.75;;;12.00;99.90;;;;;;5052356;28;20021;-70
2022/09/20 05:03:46;;;;;;;9.27;1.85;;;11.90;99.90;;;;;;5032976;28;20034;-69
2022/09/20 05:06:40;;;;;;;7.95;1.80;;;11.80;99.90;;;;;;5033760;28;20057;-69
2022/09/20 05:09:32;;;;;;;4.80;1.35;;;11.70;99.90;;;;;;5042314;28;20119;-70
2022/09/20 05:12:19;;;;;;;6.72;2.05;;;11.60;99.90;;;;;;5053258;28;20035;-69
2022/09/20 05:14:56;;;;;;;10.73;1.90;;;11.60;99.90;;;;;;5053527;28;20037;-69
2022/09/20 05:18:06;;;;;;;13.00;2.28;;;11.50;99.90;;;;;;5033613;28;20044;-69
2022/09/20 05:21:11;;;;;;;9.43;2.50;;;11.50;99.90;;;;;;5051192;28;20199;-69
2022/09/20 05:23:58;;;;;;;9.23;2.78;;;11.50;99.90;;;;;;5053121;28;20072;-69
2022/09/20 05:26:45;;;;;;;11.30;2.47;;;11.50;99.90;;;;;;5052848;28;20071;-69
2022/09/20 05:29:18;;;;;;;10.20;2.88;;;11.50;99.90;;;;;;5052804;28;20029;-70
2022/09/20 05:32:05;;;;;;;5.72;1.50;;;11.50;99.90;;;;;;5052226;28;20037;-69
2022/09/20 05:34:43;;;;;;;6.75;1.88;;;11.40;99.90;;;;;;5052013;28;20123;-69
2022/09/20 05:37:38;;;;;;;14.15;2.05;;;11.40;99.90;;;;;;5053007;28;20028;-68
2022/09/20 05:40:24;;;;;;;12.02;2.00;;;11.40;99.90;;;;;;5052102;28;20029;-69
2022/09/20 05:43:10;;;;;;;7.20;1.77;;;11.40;99.90;;;;;;5051798;28;20036;-69
2022/09/20 05:45:48;;;;;;;10.05;2.85;;;11.30;99.90;;;;;;5052511;28;20033;-69
2022/09/20 05:48:51;;;;;;;6.40;2.10;;;11.30;99.90;;;;;;5050487;28;20375;-68
2022/09/20 05:51:39;;;;;;;9.68;2.20;;;11.30;99.90;;;;;;5052124;28;20467;-68
2022/09/20 05:54:29;;;;;;;7.15;1.83;;;11.30;99.90;;;;;;5052226;28;20112;-69
2022/09/20 05:57:24;;;;;;;6.75;1.88;;;11.30;99.90;;;;;;5052094;28;20390;-70
2022/09/20 06:00:12;;;;;;;7.20;2.03;;;11.30;99.90;;;;;;5032703;28;20087;-69
2022/09/20 06:03:09;;;;;;;6.85;1.95;;;11.30;99.90;;;;;;5051693;28;20040;-70
2022/09/20 06:05:37;;;;;;;10.27;3.22;;;11.30;99.90;;;;;;5051932;28;20029;-68
2022/09/20 06:08:21;;;;;;;12.07;3.47;;;11.30;99.90;;;;;;5051921;28;20041;-69
2022/09/20 06:11:08;;;;;;;13.48;4.30;;;11.30;99.90;;;;;;5051682;28;20052;-68
2022/09/20 06:14:02;;;;;;;13.02;3.40;;;11.30;99.90;;;;;;5033325;28;20052;-68
2022/09/20 06:16:58;;;;;;;7.85;3.17;;;11.30;99.90;;;;;;5038272;28;20052;-69
2022/09/20 06:19:30;;;;;;;10.50;2.70;;;11.30;99.90;;;;;;5052226;28;20091;-68
2022/09/20 06:22:02;;;;;;;11.02;3.53;;;11.40;99.90;;;;;;5051892;28;20055;-70
2022/09/20 06:24:48;;;;;;;17.42;3.50;;;11.40;99.90;;;;;;5052359;28;20036;-69
2022/09/20 06:27:23;;;;;;;13.30;5.00;;;11.40;99.90;;;;;;5052122;28;20045;-69
2022/09/20 06:29:54;;;;;;;8.30;2.67;;;11.50;99.90;;;;;;5052027;28;20025;-70
2022/09/20 06:32:20;;;;;;;8.13;2.60;;;11.50;99.90;;;;;;5051288;28;20027;-69
2022/09/20 06:34:46;;;;;;;5.53;2.70;;;11.60;99.90;;;;;;5050492;28;20119;-70
2022/09/20 06:43:31;;;;;;;11.30;2.63;;;12.00;99.90;;;;;;5031659;28;20091;-69
2022/09/20 06:45:57;;;;;;;12.90;3.08;;;12.10;99.90;;;;;;5043961;28;20075;-69
2022/09/20 06:48:24;;;;;;;10.88;2.40;;;12.20;99.90;;;;;;5052031;28;20466;-69
2022/09/20 06:50:51;;;;;;;7.80;2.00;;;12.30;99.90;;;;;;5051578;28;20029;-69
2022/09/20 06:53:31;;;;;;;10.40;2.63;;;12.50;99.90;;;;;;5051506;28;20796;-69
2022/09/20 06:55:58;;;;;;;11.57;2.45;;;12.60;99.90;;;;;;5051493;28;20040;-69
2022/09/20 06:58:24;;;;;;;10.05;2.20;;;12.70;99.90;;;;;;5047000;28;20049;-69
2022/09/20 07:00:50;;;;;;;8.02;2.45;;;12.80;99.90;;;;;;5050346;28;20025;-69
2022/09/20 07:03:18;;;;;;;8.75;2.28;;;13.00;99.90;;;;;;5049674;28;20029;-69
2022/09/20 07:05:43;;;;;;;8.88;2.17;;;13.10;99.90;;;;;;5049198;28;20107;-69
2022/09/20 07:08:09;;;;;;;12.25;2.80;;;13.20;99.90;;;;;;5048440;28;20029;-69
2022/09/20 07:10:34;;;;;;;8.15;2.10;;;13.40;99.90;;;;;;5047358;28;20179;-69
2022/09/20 07:13:01;;;;;;;9.40;1.92;;;13.50;99.90;;;;;;5046217;28;20542;-69
2022/09/20 07:15:27;;;;;;;10.43;2.13;;;13.70;99.90;;;;;;5050744;28;20401;-69
2022/09/20 07:17:53;;;;;;;9.93;2.25;;;13.80;99.90;;;;;;5046372;28;20133;-69
2022/09/20 07:20:19;;;;;;;12.55;2.70;;;14.00;99.90;;;;;;5050626;28;20108;-69
2022/09/20 07:22:45;;;;;;;10.88;2.70;;;14.20;99.90;;;;;;5050399;28;20127;-69
2022/09/20 07:25:11;;;;;;;9.25;2.83;;;14.30;99.90;;;;;;5050547;28;20033;-69
2022/09/20 07:27:37;;;;;;;6.05;2.00;;;14.40;99.90;;;;;;5051085;28;20442;-69
2022/09/20 07:30:03;;;;;;;8.63;2.00;;;14.40;99.90;;;;;;5051212;28;20516;-69
2022/09/20 07:32:29;;;;;;;7.68;1.90;;;14.40;99.90;;;;;;5051030;28;20033;-69
2022/09/20 07:34:54;;;;;;;6.28;1.58;;;14.50;99.90;;;;;;5050740;28;20029;-69
2022/09/20 07:37:20;;;;;;;6.65;2.42;;;14.50;99.90;;;;;;5047541;28;20053;-69
2022/09/20 07:39:46;;;;;;;6.80;2.05;;;14.50;99.90;;;;;;5051009;28;20035;-69
2022/09/20 07:42:12;;;;;;;7.30;2.10;;;14.60;99.90;;;;;;5050269;28;20056;-69
2022/09/20 07:44:41;;;;;;;5.88;1.77;;;14.70;99.90;;;;;;5051144;28;20037;-70
2022/09/20 07:47:08;;;;;;;5.68;1.73;;;14.80;99.90;;;;;;5054436;28;20063;-69
2022/09/20 07:49:34;;;;;;;7.57;1.75;;;15.00;99.90;;;;;;5054170;28;20036;-69
2022/09/20 07:51:59;;;;;;;8.80;1.95;;;15.20;99.90;;;;;;5053636;28;20029;-69
2022/09/20 07:54:26;;;;;;;6.95;1.70;;;15.30;99.90;;;;;;5052784;28;20446;-69
2022/09/20 07:56:52;;;;;;;3.85;1.50;;;15.50;99.90;;;;;;5053078;28;20143;-69
2022/09/20 07:59:18;;;;;;;7.88;1.60;;;15.70;99.90;;;;;;5054287;28;20040;-69
2022/09/20 08:01:43;;;;;;;12.05;1.90;;;15.80;99.90;;;;;;5054148;28;20029;-69
2022/09/20 08:04:09;;;;;;;4.53;1.60;;;16.00;99.90;;;;;;5054222;28;20611;-69
2022/09/20 08:06:37;;;;;;;7.05;1.75;;;16.10;99.90;;;;;;5054228;28;20044;-69
2022/09/20 08:09:03;;;;;;;4.43;1.52;;;16.30;99.90;;;;;;5054369;28;20133;-69
2022/09/20 08:11:29;;;;;;;8.95;1.45;;;16.40;99.90;;;;;;5053747;28;20029;-69
2022/09/20 08:13:57;;;;;;;5.88;1.73;;;16.50;99.90;;;;;;5047997;28;20458;-69
2022/09/20 08:16:23;;;;;;;6.88;1.30;;;16.70;99.90;;;;;;5052068;28;20582;-69
2022/09/20 08:18:50;;;;;;;7.55;1.40;;;17.30;99.90;;;;;;5053944;28;20103;-69
2022/09/20 08:21:16;;;;;;;4.90;1.30;;;18.60;99.90;;;;;;5054515;28;20346;-69
2022/09/20 08:23:46;;;;;;;4.78;1.50;;;19.60;99.90;;;;;;5051419;28;20136;-69
2022/09/20 08:26:14;;;;;;;2.58;1.02;;;19.90;99.90;;;;;;5054537;28;20443;-70
2022/09/20 08:28:40;;;;;;;8.18;0.90;;;19.70;99.90;;;;;;5052470;28;20422;-69
2022/09/20 08:31:08;;;;;;;6.22;1.20;;;19.40;99.90;;;;;;5054886;28;20075;-69
2022/09/20 08:33:37;;;;;;;8.25;1.88;;;19.00;99.90;;;;;;5054302;28;20033;-69
2022/09/20 08:36:05;;;;;;;6.03;1.08;;;18.60;99.90;;;;;;5053293;28;20033;-70
2022/09/20 08:38:31;;;;;;;4.47;0.88;;;18.20;99.90;;;;;;5050822;28;20451;-69
2022/09/20 08:41:24;;;;;;;3.42;0.60;;;17.80;99.90;;;;;;5045630;28;20433;-69
2022/09/20 08:43:53;;;;;;;4.30;0.88;;;17.30;99.90;;;;;;5050751;28;20491;-69
2022/09/20 08:46:24;;;;;;;2.85;0.73;;;16.90;99.90;;;;;;5048543;28;20112;-69
2022/09/20 08:48:51;;;;;;;7.22;0.98;;;16.50;99.90;;;;;;5048782;28;20402;-69
2022/09/20 08:51:18;;;;;;;5.53;0.95;;;16.30;99.90;;;;;;5053741;28;20040;-69
2022/09/20 08:53:51;;;;;;;4.43;1.20;;;16.10;99.90;;;;;;5053638;28;20041;-69
2022/09/20 08:56:17;;;;;;;4.75;1.05;;;15.90;99.90;;;;;;5052637;28;20021;-69
2022/09/20 08:58:45;;;;;;;9.02;0.98;;;15.80;99.90;;;;;;5054891;28;20090;-69
2022/09/20 09:01:18;;;;;;;5.72;1.40;;;15.60;99.90;;;;;;5050141;28;20067;-69
2022/09/20 09:03:43;;;;;;;7.63;1.20;;;15.50;99.90;;;;;;5052827;28;20119;-69
2022/09/20 09:06:13;;;;;;;4.82;1.08;;;15.50;99.90;;;;;;5051873;28;20101;-70
2022/09/20 09:08:39;;;;;;;6.32;1.20;;;16.40;99.90;;;;;;5052363;28;20363;-69
2022/09/20 09:11:12;;;;;;;4.25;0.90;;;17.50;99.90;;;;;;5053047;28;20074;-70
2022/09/20 09:13:46;;;;;;;6.50;1.40;;;19.00;99.90;;;;;;5052719;28;20040;-70
2022/09/20 09:16:14;;;;;;;4.13;0.95;;;20.50;99.90;;;;;;5053130;28;20044;-70
2022/09/20 09:18:42;;;;;;;3.67;0.90;;;22.00;99.90;;;;;;5051816;28;20112;-70
2022/09/20 09:21:16;;;;;;;4.88;1.08;;;23.50;98.60;;;;;;5053076;28;20059;-70
2022/09/20 09:23:59;;;;;;;7.82;1.60;;;24.90;94.70;;;;;;5052565;28;20037;-70
2022/09/20 09:26:26;;;;;;;4.82;0.90;;;25.40;92.90;;;;;;5052929;28;20033;-70
2022/09/20 09:29:19;;;;;;;4.50;1.20;;;25.20;92.20;;;;;;5043119;28;20065;-70
2022/09/20 09:31:47;;;;;;;4.32;0.98;;;24.50;91.60;;;;;;5047606;28;20490;-70
2022/09/20 09:34:34;;;;;;;6.47;1.02;;;23.70;91.40;;;;;;5052508;28;20041;-70
2022/09/20 09:37:01;;;;;;;7.53;1.00;;;23.00;92.20;;;;;;5037726;28;20025;-69
2022/09/20 09:39:29;;;;;;;3.30;0.60;;;22.50;93.40;;;;;;5052351;28;20068;-70
2022/09/20 09:41:58;;;;;;;6.00;1.33;;;22.10;93.70;;;;;;5052609;28;20112;-70
2022/09/20 09:44:29;;;;;;;3.20;1.13;;;21.90;94.10;;;;;;5052291;28;20037;-70
2022/09/20 09:46:56;;;;;;;3.27;0.80;;;21.80;94.60;;;;;;5051108;28;20032;-70
2022/09/20 09:49:24;;;;;;;3.00;0.80;;;21.70;95.00;;;;;;5052135;28;20422;-70
2022/09/20 09:52:00;;;;;;;2.72;0.70;;;21.50;93.50;;;;;;5051231;28;20075;-69
2022/09/20 09:54:28;;;;;;;4.93;0.90;;;21.30;94.90;;;;;;5048793;28;20044;-70
2022/09/20 09:57:14;;;;;;;2.63;0.73;;;21.20;95.00;;;;;;5045432;28;20403;-70
2022/09/20 10:00:11;;;;;;;5.38;0.93;;;21.10;95.10;;;;;;5054752;28;20036;-70
2022/09/20 10:03:01;;;;;;;6.22;1.38;;;20.90;95.20;;;;;;5049855;28;20044;-70
2022/09/20 10:06:05;;;;;;;3.22;1.00;;;20.70;95.50;;;;;;5042394;28;20091;-70
2022/09/20 10:08:56;;;;;;;5.10;0.90;;;20.50;96.50;;;;;;5051348;28;20043;-70
2022/09/20 10:11:57;;;;;;;4.10;1.15;;;20.60;96.40;;;;;;5051804;28;20056;-69
2022/09/20 10:14:54;;;;;;;3.80;0.97;;;21.60;96.40;;;;;;5052009;28;20032;-69
2022/09/20 10:17:54;;;;;;;2.97;0.80;;;22.80;95.60;;;;;;5051423;28;20079;-69
2022/09/20 10:20:32;;;;;;;6.90;1.75;;;23.50;93.00;;;;;;5050789;28;20036;-69
2022/09/20 10:23:08;;;;;;;3.22;0.90;;;23.70;92.10;;;;;;5049850;28;20028;-69
2022/09/20 10:26:05;;;;;;;4.60;1.40;;;23.80;90.90;;;;;;5042193;28;20079;-69
2022/09/20 10:28:34;;;;;;;1.85;0.68;;;23.90;91.90;;;;;;5058943;28;20134;-70
2022/09/20 10:31:18;;;;;;;5.88;0.98;;;23.90;91.70;;;;;;5056144;28;20042;-70
2022/09/20 10:34:14;;;;;;;2.95;0.90;;;23.90;92.80;;;;;;5037102;28;20065;-70
2022/09/20 10:36:59;;;;;;;5.38;1.30;;;24.00;91.60;;;;;;5051564;28;20124;-70
2022/09/20 10:39:31;;;;;;;5.75;1.10;;;24.00;92.30;;;;;;5049963;28;20017;-70
2022/09/20 10:45:13;;;;;;;1.90;0.80;;;24.10;92.60;;;;;;5046085;28;20059;-70
2022/09/20 10:47:49;;;;;;;6.75;1.08;;;24.00;92.10;;;;;;5046609;28;20052;-70
2022/09/20 10:50:41;;;;;;;6.45;1.20;;;23.80;91.80;;;;;;5050572;28;20029;-69
2022/09/20 10:53:21;;;;;;;6.65;1.58;;;23.40;91.90;;;;;;5048354;28;20037;-70
2022/09/20 10:55:58;;;;;;;4.35;0.80;;;22.80;90.60;;;;;;5049885;28;20040;-70
2022/09/20 10:59:05;;;;;;;6.03;1.52;;;22.30;91.30;;;;;;5051197;28;20398;-70
2022/09/20 11:02:16;;;;;;;9.93;1.60;;;21.90;92.90;;;;;;5024409;28;20124;-70
2022/09/20 11:05:19;;;;;;;3.97;1.00;;;21.60;93.30;;;;;;5047588;28;20037;-70
2022/09/20 11:07:48;;;;;;;3.78;1.25;;;21.50;92.30;;;;;;5042159;28;20490;-70
2022/09/20 11:10:50;;;;;;;5.13;0.80;;;21.40;91.90;;;;;;5050676;28;20048;-69
2022/09/20 11:13:31;;;;;;;6.80;2.70;;;21.30;90.20;;;;;;4980374;28;20026;-69
2022/09/20 11:16:11;;;;;;;9.23;3.20;;;21.30;90.70;;;;;;5025619;28;20034;-69
2022/09/20 11:18:58;;;;;;;1.35;0.60;;;21.70;91.30;;;;;;5032056;28;20026;-69
2022/09/20 11:21:33;;;;;;;3.38;0.90;;;22.20;86.80;;;;;;5035481;28;20071;-69
2022/09/20 11:24:13;;;;;;;4.07;1.33;;;22.60;90.50;;;;;;5035479;28;20041;-69
2022/09/20 11:26:44;;;;;;;2.20;0.82;;;23.00;88.50;;;;;;5035707;28;20029;-70
2022/09/20 11:29:43;;;;;;;7.93;2.00;;;23.30;87.90;;;;;;5035517;28;20030;-69
2022/09/20 11:32:23;;;;;;;6.03;2.55;;;23.50;84.00;;;;;;5035063;28;20112;-71
2022/09/20 11:35:24;;;;;;;2.63;0.80;;;23.30;80.90;;;;;;5035629;28;20026;-70
2022/09/20 11:38:23;;;;;;;3.20;1.30;;;23.20;81.70;;;;;;5047240;28;20041;-70
2022/09/20 11:41:14;;;;;;;7.40;3.75;;;23.00;82.90;;;;;;5038367;28;20030;-70
2022/09/20 11:43:44;;;;;;;13.27;4.50;;;23.00;86.80;;;;;;5049432;28;20041;-70
2022/09/20 11:46:17;;;;;;;8.32;2.03;;;23.10;87.40;;;;;;5060632;28;20078;-70
2022/09/20 11:48:50;;;;;;;4.25;1.13;;;23.10;83.90;;;;;;5036900;28;20690;-70
2022/09/20 11:51:33;;;;;;;4.60;0.80;;;23.10;83.10;;;;;;5054936;28;20029;-70
2022/09/20 11:54:14;;;;;;;3.00;1.30;;;23.20;83.90;;;;;;5054645;28;20036;-69
2022/09/20 11:56:39;;;;;;;7.57;3.05;;;23.20;84.70;;;;;;5054732;28;20029;-70
2022/09/20 11:59:21;;;;;;;12.32;3.00;;;23.30;84.90;;;;;;5054626;28;20044;-70
2022/09/20 12:01:46;;;;;;;20.27;8.05;;;23.60;85.20;;;;;;5054392;28;20021;-70
2022/09/20 12:04:25;;;;;;;7.82;3.22;;;23.90;85.40;;;;;;5054279;28;20052;-69
2022/09/20 12:07:00;;;;;;;11.80;4.68;;;24.00;83.20;;;;;;5039190;28;20025;-69
2022/09/20 12:09:32;;;;;;;4.32;1.67;;;24.10;83.00;;;;;;5054129;28;20071;-70
2022/09/20 12:11:59;;;;;;;10.13;3.42;;;24.00;83.60;;;;;;5054012;28;20055;-69
2022/09/20 12:14:28;;;;;;;13.18;4.25;;;24.00;84.30;;;;;;5054360;28;20025;-70
2022/09/20 12:16:55;;;;;;;6.07;1.77;;;23.90;83.60;;;;;;5054370;28;20029;-70
2022/09/20 12:19:31;;;;;;;3.05;0.70;;;23.80;84.40;;;;;;5054027;28;20025;-69
2022/09/20 12:21:57;;;;;;;4.03;0.98;;;23.70;81.90;;;;;;5053643;28;20044;-70
2022/09/20 12:24:33;;;;;;;4.68;1.13;;;23.30;81.50;;;;;;5053879;28;20565;-69
2022/09/20 12:27:00;;;;;;;5.90;1.25;;;22.80;82.60;;;;;;5054346;28;20512;-70
2022/09/20 12:29:25;;;;;;;7.53;1.80;;;22.50;84.70;;;;;;5053838;28;20466;-69
2022/09/20 12:31:53;;;;;;;8.88;3.85;;;22.30;84.50;;;;;;5052364;28;20032;-69
2022/09/20 12:34:19;;;;;;;5.32;1.70;;;22.30;85.90;;;;;;5053742;28;20478;-70
2022/09/20 12:37:09;;;;;;;6.10;0.95;;;22.50;87.40;;;;;;5051049;28;20073;-70
2022/09/20 12:39:38;;;;;;;7.13;2.17;;;22.50;84.20;;;;;;5046738;28;20120;-70
2022/09/20 12:42:10;;;;;;;10.63;1.75;;;22.40;87.30;;;;;;5053682;28;20478;-69
2022/09/20 12:44:53;;;;;;;8.60;1.90;;;22.40;87.10;;;;;;5053125;28;20044;-69
2022/09/20 12:47:37;;;;;;;6.75;1.67;;;22.20;84.70;;;;;;5053453;28;20059;-70
2022/09/20 12:53:00;;;;;;;6.72;1.90;;;21.70;85.90;;;;;;5044004;28;20078;-69
2022/09/20 12:55:51;;;;;;;7.30;2.33;;;21.50;87.60;;;;;;5053354;28;20462;-70
2022/09/20 12:58:19;;;;;;;9.95;3.65;;;21.50;89.10;;;;;;5051477;28;20055;-69
2022/09/20 13:00:54;;;;;;;3.85;0.80;;;21.40;88.80;;;;;;5053375;28;20486;-69
2022/09/20 13:03:43;;;;;;;4.97;1.20;;;21.20;89.40;;;;;;5053676;28;20021;-70
2022/09/20 13:06:29;;;;;;;8.00;1.95;;;21.00;90.20;;;;;;5052496;28;20048;-69
2022/09/20 13:09:00;;;;;;;9.48;1.30;;;20.70;90.90;;;;;;5041186;28;20049;-69
2022/09/20 13:11:47;;;;;;;10.52;2.85;;;20.40;91.00;;;;;;5052686;28;20055;-69
2022/09/20 13:14:21;;;;;;;8.70;1.73;;;20.30;92.30;;;;;;5052820;28;20029;-69
2022/09/20 13:16:58;;;;;;;6.68;1.80;;;20.40;92.50;;;;;;5049229;28;20379;-69
2022/09/20 13:19:37;;;;;;;4.57;1.90;;;20.50;92.20;;;;;;5052391;28;20528;-69
2022/09/20 13:22:03;;;;;;;6.25;1.35;;;20.80;92.90;;;;;;5053255;28;20497;-69
2022/09/20 13:24:37;;;;;;;7.18;1.70;;;21.00;91.30;;;;;;5051736;28;20045;-70
2022/09/20 13:27:17;;;;;;;5.03;1.20;;;21.20;91.00;;;;;;5052244;28;20119;-69
2022/09/20 13:29:44;;;;;;;6.43;1.33;;;21.40;90.80;;;;;;5052515;28;20036;-69
2022/09/20 13:32:26;;;;;;;12.02;1.80;;;21.50;90.10;;;;;;5052128;28;20028;-69
2022/09/20 13:35:04;;;;;;;;;;;21.60;90.70;;;;;;5049371;28;20025;-69
2022/09/20 13:37:30;;;;;;;5.55;1.23;;;21.60;90.90;;;;;;5044262;28;19974;-69
2022/09/20 13:39:56;;;;;;;5.68;1.40;;;21.50;90.60;;;;;;5051960;28;20037;-69
2022/09/20 13:42:22;;;;;;;3.80;1.30;;;21.50;91.00;;;;;;5052156;28;20037;-69
2022/09/20 13:44:48;;;;;;;4.40;1.67;;;21.40;91.20;;;;;;5052452;28;20041;-68
2022/09/20 13:47:25;;;;;;;5.43;1.40;;;21.30;91.00;;;;;;5052219;28;20086;-69
2022/09/20 13:49:51;;;;;;;6.90;1.60;;;21.20;91.10;;;;;;5052142;28;20036;-69
2022/09/20 13:52:29;;;;;;;5.43;1.42;;;21.00;91.40;;;;;;5050747;28;20032;-69
2022/09/20 13:54:55;;;;;;;5.85;2.70;;;20.80;91.50;;;;;;5050122;28;20028;-69
2022/09/20 13:57:26;;;;;;;2.60;1.15;;;20.70;91.80;;;;;;5050486;28;20029;-68